Time;durP1;ratioP1;P1;durP2;ratioP2;P2;SDS_P1;SDS_P2;PMS_P1;PMS_P2;Temp;Humidity;BMP_temperature;BMP_pressure;BME280_temperature;BME280_humidity;BME280_pressure;Samples;Min_cycle;Max_cycle;Signal;HPM_P1;HPM_P2
2021/07/14 00:00:59;;;;;;;;;32.67;28.33;;;;;;;;5054010;28;45719;-77
2021/07/14 00:03:25;;;;;;;;;35.75;29.25;;;;;;;;5054661;28;45506;-76
2021/07/14 00:05:50;;;;;;;;;34.25;30.25;;;;;;;;5050197;28;45279;-76
2021/07/14 00:08:18;;;;;;;;;36.50;29.75;;;;;;;;5050852;28;45459;-76
2021/07/14 00:10:43;;;;;;;;;44.25;30.50;;;;;;;;5054994;28;46205;-77
2021/07/14 00:23:26;;;;;;;;;27.50;26.00;;;;;;;;5059922;28;45409;-76
2021/07/14 00:25:52;;;;;;;;;31.67;28.67;;;;;;;;5057796;28;45519;-75
2021/07/14 00:28:18;;;;;;;;;32.00;26.00;;;;;;;;5053815;28;46150;-75
2021/07/14 00:30:49;;;;;;;;;28.50;26.00;;;;;;;;5053556;28;45978;-77
2021/07/14 00:33:14;;;;;;;;;29.50;25.50;;;;;;;;5054302;28;45744;-77
2021/07/14 00:35:39;;;;;;;;;30.75;26.00;;;;;;;;5050846;28;45474;-76
2021/07/14 00:38:05;;;;;;;;;30.67;26.33;;;;;;;;5055692;28;47484;-76
2021/07/14 00:40:30;;;;;;;;;29.75;25.75;;;;;;;;5063038;28;45481;-79
2021/07/14 00:42:55;;;;;;;;;33.33;27.33;;;;;;;;5055963;28;45604;-76
2021/07/14 00:45:20;;;;;;;;;28.33;24.00;;;;;;;;5060330;28;45508;-77
2021/07/14 00:47:49;;;;;;;;;28.50;24.50;;;;;;;;5064897;28;46161;-76
2021/07/14 00:50:15;;;;;;;;;26.50;24.25;;;;;;;;5059474;28;46049;-77
2021/07/14 00:52:40;;;;;;;;;29.75;25.50;;;;;;;;5056082;28;45351;-78
2021/07/14 00:55:06;;;;;;;;;27.75;24.25;;;;;;;;5054637;28;45468;-76
2021/07/14 00:57:32;;;;;;;;;30.50;25.25;;;;;;;;5051461;28;47325;-76
2021/07/14 00:59:57;;;;;;;;;29.75;24.00;;;;;;;;5061431;28;46922;-78
2021/07/14 01:02:24;;;;;;;;;24.75;22.75;;;;;;;;5063913;28;45485;-79
2021/07/14 01:04:54;;;;;;;;;25.75;25.00;;;;;;;;5056640;28;45383;-77
2021/07/14 01:07:19;;;;;;;;;28.75;24.25;;;;;;;;5058824;28;45523;-76
2021/07/14 01:09:56;;;;;;;;;27.33;21.00;;;;;;;;5058902;28;45831;-76
2021/07/14 01:12:33;;;;;;;;;20.25;20.25;;;;;;;;5053668;28;45463;-77
2021/07/14 01:15:05;;;;;;;;;23.75;18.75;;;;;;;;5062862;28;45668;-76
2021/07/14 01:17:33;;;;;;;;;26.00;21.75;;;;;;;;5050554;28;47064;-75
2021/07/14 01:20:10;;;;;;;;;24.50;22.25;;;;;;;;5056098;28;45541;-76
2021/07/14 01:22:46;;;;;;;;;24.75;20.25;;;;;;;;5062704;28;45540;-76
2021/07/14 01:25:17;;;;;;;;;20.25;16.50;;;;;;;;5059433;28;45497;-76
2021/07/14 01:27:44;;;;;;;;;23.75;19.75;;;;;;;;5059101;28;45649;-76
2021/07/14 01:30:15;;;;;;;;;23.25;17.75;;;;;;;;5056106;28;46185;-77
2021/07/14 01:32:41;;;;;;;;;26.00;24.00;;;;;;;;5053324;28;45364;-76
2021/07/14 01:35:11;;;;;;;;;18.50;18.50;;;;;;;;5054806;28;45331;-75
2021/07/14 01:37:39;;;;;;;;;18.75;18.25;;;;;;;;5058209;28;47316;-76
2021/07/14 01:40:05;;;;;;;;;27.25;23.00;;;;;;;;5055550;28;46072;-76
2021/07/14 01:42:32;;;;;;;;;24.25;20.50;;;;;;;;5060162;28;45561;-76
2021/07/14 01:44:57;;;;;;;;;25.00;19.00;;;;;;;;5061889;28;45975;-77
2021/07/14 01:47:24;;;;;;;;;25.00;21.50;;;;;;;;5062688;28;45375;-77
2021/07/14 01:49:50;;;;;;;;;24.75;21.00;;;;;;;;5055811;28;45676;-77
2021/07/14 01:52:17;;;;;;;;;30.00;21.50;;;;;;;;5052306;28;45660;-76
2021/07/14 01:54:43;;;;;;;;;21.00;20.00;;;;;;;;5090500;27;45890;-76
2021/07/14 01:57:08;;;;;;;;;18.50;15.75;;;;;;;;5060216;28;46684;-76
2021/07/14 01:59:36;;;;;;;;;25.25;21.75;;;;;;;;5056216;28;45483;-77
2021/07/14 02:02:03;;;;;;;;;20.25;17.75;;;;;;;;5056450;28;45430;-77
2021/07/14 02:04:30;;;;;;;;;23.75;18.75;;;;;;;;5057693;28;45262;-77
2021/07/14 02:06:57;;;;;;;;;24.25;17.50;;;;;;;;5054282;28;46042;-78
2021/07/14 02:09:22;;;;;;;;;26.75;24.50;;;;;;;;5059690;28;45381;-76
2021/07/14 02:11:49;;;;;;;;;27.00;21.33;;;;;;;;5065076;28;45413;-75
2021/07/14 02:14:19;;;;;;;;;24.25;20.75;;;;;;;;5068638;28;45484;-75
2021/07/14 02:16:46;;;;;;;;;24.00;20.25;;;;;;;;5061772;28;46390;-75
2021/07/14 02:19:13;;;;;;;;;26.75;22.75;;;;;;;;5057090;28;45837;-75
2021/07/14 02:21:38;;;;;;;;;22.00;21.75;;;;;;;;5046264;28;48782;-75
2021/07/14 02:24:04;;;;;;;;;22.00;21.00;;;;;;;;5057692;28;45448;-75
2021/07/14 02:26:31;;;;;;;;;23.50;20.50;;;;;;;;5061034;28;47627;-76
2021/07/14 02:28:56;;;;;;;;;22.50;18.75;;;;;;;;5056937;28;45730;-76
2021/07/14 02:31:21;;;;;;;;;21.25;19.75;;;;;;;;5052930;28;45556;-74
2021/07/14 02:33:47;;;;;;;;;24.50;21.50;;;;;;;;5053561;28;45297;-73
2021/07/14 02:36:15;;;;;;;;;19.33;15.33;;;;;;;;5052495;28;46153;-75
2021/07/14 02:38:42;;;;;;;;;20.50;18.25;;;;;;;;5063388;28;45228;-75
2021/07/14 02:41:07;;;;;;;;;21.00;15.50;;;;;;;;5052904;28;45493;-77
2021/07/14 02:43:34;;;;;;;;;21.50;17.00;;;;;;;;5061035;28;45402;-76
2021/07/14 02:46:02;;;;;;;;;22.50;19.75;;;;;;;;5055803;28;46048;-76
2021/07/14 02:48:28;;;;;;;;;22.25;18.75;;;;;;;;5059396;28;45926;-76
2021/07/14 02:50:54;;;;;;;;;19.75;19.25;;;;;;;;5063061;28;45380;-76
2021/07/14 02:53:21;;;;;;;;;21.50;16.75;;;;;;;;5062860;28;45453;-78
2021/07/14 02:55:50;;;;;;;;;19.25;13.50;;;;;;;;5063911;28;45877;-76
2021/07/14 02:58:16;;;;;;;;;13.75;13.75;;;;;;;;5057105;28;45889;-76
2021/07/14 03:00:41;;;;;;;;;16.75;16.50;;;;;;;;5057170;27;45356;-77
2021/07/14 03:03:07;;;;;;;;;20.00;17.25;;;;;;;;5059498;28;45694;-76
2021/07/14 03:05:34;;;;;;;;;14.75;13.00;;;;;;;;5047563;28;46056;-76
2021/07/14 03:07:59;;;;;;;;;20.00;13.75;;;;;;;;5064635;28;45682;-77
2021/07/14 03:10:25;;;;;;;;;14.25;12.25;;;;;;;;5058784;28;45312;-77
2021/07/14 03:12:51;;;;;;;;;14.00;13.75;;;;;;;;5057555;27;45520;-77
2021/07/14 03:15:17;;;;;;;;;17.50;16.00;;;;;;;;5061173;27;45514;-76
2021/07/14 03:17:43;;;;;;;;;14.00;11.50;;;;;;;;5061359;28;45347;-77
2021/07/14 03:20:10;;;;;;;;;14.50;11.75;;;;;;;;5048883;28;45438;-77
2021/07/14 03:22:37;;;;;;;;;14.75;14.25;;;;;;;;5058137;28;45407;-76
2021/07/14 03:25:03;;;;;;;;;13.00;12.00;;;;;;;;5054346;28;46266;-78
2021/07/14 03:27:29;;;;;;;;;15.00;14.00;;;;;;;;5055841;28;45938;-76
2021/07/14 03:29:54;;;;;;;;;13.33;12.00;;;;;;;;5061376;28;45556;-76
2021/07/14 03:32:19;;;;;;;;;17.50;15.50;;;;;;;;5062400;28;45589;-76
2021/07/14 03:34:45;;;;;;;;;19.25;13.00;;;;;;;;5056123;28;47098;-76
2021/07/14 03:37:11;;;;;;;;;17.00;13.00;;;;;;;;5052327;28;45612;-73
2021/07/14 03:39:38;;;;;;;;;18.00;14.50;;;;;;;;5051122;28;45626;-76
2021/07/14 03:42:04;;;;;;;;;17.50;14.25;;;;;;;;5053692;28;45455;-77
2021/07/14 03:44:31;;;;;;;;;18.50;14.75;;;;;;;;5053510;28;46584;-77
2021/07/14 03:46:57;;;;;;;;;15.75;13.25;;;;;;;;5054105;28;45732;-74
2021/07/14 03:49:23;;;;;;;;;18.50;13.75;;;;;;;;5053394;28;46044;-77
2021/07/14 03:51:48;;;;;;;;;19.00;16.00;;;;;;;;5052240;28;45608;-74
2021/07/14 03:54:14;;;;;;;;;17.25;15.75;;;;;;;;5060380;28;46148;-75
2021/07/14 03:56:40;;;;;;;;;15.50;12.50;;;;;;;;5047232;28;45545;-74
2021/07/14 03:59:05;;;;;;;;;15.50;14.50;;;;;;;;5051054;28;45186;-74
2021/07/14 04:01:31;;;;;;;;;15.00;13.00;;;;;;;;5050266;28;45271;-75
2021/07/14 04:03:56;;;;;;;;;12.50;10.75;;;;;;;;5050180;28;46522;-76
2021/07/14 04:06:22;;;;;;;;;17.00;13.75;;;;;;;;5050089;28;45484;-74
2021/07/14 04:09:07;;;;;;;;;16.00;14.50;;;;;;;;5053732;28;45450;-73
2021/07/14 04:11:33;;;;;;;;;14.50;12.50;;;;;;;;5044936;28;47714;-75
2021/07/14 04:13:58;;;;;;;;;18.00;16.00;;;;;;;;5056660;28;45996;-74
2021/07/14 04:16:24;;;;;;;;;15.00;13.33;;;;;;;;5057179;28;45457;-74
2021/07/14 04:18:49;;;;;;;;;16.00;14.00;;;;;;;;5053785;28;45466;-76
2021/07/14 04:21:14;;;;;;;;;13.00;12.00;;;;;;;;5050635;28;45454;-75
2021/07/14 04:23:39;;;;;;;;;17.33;13.67;;;;;;;;5060769;28;45522;-74
2021/07/14 04:26:04;;;;;;;;;21.33;15.00;;;;;;;;5061751;28;45537;-74
2021/07/14 04:28:32;;;;;;;;;13.00;13.00;;;;;;;;5058823;28;45507;-74
2021/07/14 04:30:57;;;;;;;;;16.75;13.75;;;;;;;;5055730;28;45485;-74
2021/07/14 04:33:22;;;;;;;;;16.00;15.33;;;;;;;;5060541;28;46704;-74
2021/07/14 04:35:48;;;;;;;;;13.67;13.67;;;;;;;;5059236;28;45629;-74
2021/07/14 04:38:13;;;;;;;;;16.75;15.00;;;;;;;;5057057;28;45809;-75
2021/07/14 04:40:38;;;;;;;;;21.75;14.00;;;;;;;;5057249;28;45425;-75
2021/07/14 04:43:03;;;;;;;;;17.33;15.33;;;;;;;;5055571;28;46172;-74
2021/07/14 04:45:29;;;;;;;;;15.33;14.00;;;;;;;;5053051;28;45838;-74
2021/07/14 04:47:54;;;;;;;;;15.75;13.25;;;;;;;;5059782;28;45509;-74
2021/07/14 04:50:19;;;;;;;;;18.00;12.67;;;;;;;;5064569;28;45514;-75
2021/07/14 04:52:44;;;;;;;;;16.67;15.33;;;;;;;;5056112;28;45771;-74
2021/07/14 04:55:09;;;;;;;;;14.67;14.00;;;;;;;;5056853;28;45326;-75
2021/07/14 04:57:35;;;;;;;;;18.00;13.50;;;;;;;;5058204;27;45532;-75
2021/07/14 05:00:00;;;;;;;;;17.25;14.00;;;;;;;;5064237;28;45553;-78
2021/07/14 05:02:25;;;;;;;;;15.67;14.67;;;;;;;;5060855;28;46083;-74
2021/07/14 05:04:50;;;;;;;;;12.00;12.00;;;;;;;;5064871;28;45811;-74
2021/07/14 05:07:16;;;;;;;;;17.33;13.00;;;;;;;;5058134;28;45499;-78
2021/07/14 05:09:41;;;;;;;;;18.00;13.25;;;;;;;;5059472;27;45570;-73
2021/07/14 05:12:06;;;;;;;;;14.67;12.67;;;;;;;;5064531;28;45566;-74
2021/07/14 05:14:31;;;;;;;;;19.67;16.33;;;;;;;;5064023;28;45561;-74
2021/07/14 05:16:57;;;;;;;;;17.75;13.25;;;;;;;;5067235;28;45310;-73
2021/07/14 05:19:22;;;;;;;;;17.25;15.00;;;;;;;;5056106;28;45349;-74
2021/07/14 05:21:47;;;;;;;;;16.67;13.67;;;;;;;;5051171;28;46499;-75
2021/07/14 05:24:13;;;;;;;;;17.25;15.25;;;;;;;;5052978;28;45505;-76
2021/07/14 05:26:38;;;;;;;;;16.25;14.50;;;;;;;;5056255;28;45482;-75
2021/07/14 05:29:04;;;;;;;;;19.67;14.00;;;;;;;;5065653;28;45469;-77
2021/07/14 05:31:29;;;;;;;;;16.00;14.75;;;;;;;;5062242;28;46743;-74
2021/07/14 05:33:54;;;;;;;;;21.00;13.25;;;;;;;;5055754;28;45523;-75
2021/07/14 05:36:20;;;;;;;;;17.50;14.75;;;;;;;;5058306;27;45445;-75
2021/07/14 05:38:45;;;;;;;;;16.67;13.00;;;;;;;;5051927;28;45406;-76
2021/07/14 05:41:10;;;;;;;;;13.00;12.67;;;;;;;;5063577;28;45368;-75
2021/07/14 05:43:36;;;;;;;;;16.75;14.25;;;;;;;;5061932;28;45450;-75
2021/07/14 05:46:01;;;;;;;;;13.75;12.50;;;;;;;;5058303;28;45517;-76
2021/07/14 05:48:27;;;;;;;;;14.25;12.75;;;;;;;;5060474;27;45355;-75
2021/07/14 05:50:53;;;;;;;;;19.00;15.75;;;;;;;;5059415;28;45328;-76
2021/07/14 05:53:19;;;;;;;;;25.00;23.25;;;;;;;;5053529;28;45999;-76
2021/07/14 05:55:44;;;;;;;;;25.75;21.75;;;;;;;;5062531;28;45558;-75
2021/07/14 05:58:11;;;;;;;;;30.25;27.75;;;;;;;;5054443;28;45406;-75
2021/07/14 06:00:37;;;;;;;;;39.00;33.25;;;;;;;;5052972;28;45500;-79
2021/07/14 06:03:03;;;;;;;;;32.50;27.75;;;;;;;;5060900;28;45773;-77
2021/07/14 06:05:31;;;;;;;;;24.00;21.50;;;;;;;;5061319;28;45505;-76
2021/07/14 06:07:56;;;;;;;;;23.25;18.50;;;;;;;;5053845;28;45381;-76
2021/07/14 06:10:21;;;;;;;;;19.33;18.00;;;;;;;;5058091;28;45911;-76
2021/07/14 06:12:46;;;;;;;;;24.00;18.67;;;;;;;;5057876;28;45422;-76
2021/07/14 06:15:12;;;;;;;;;16.33;15.67;;;;;;;;5061860;28;45764;-76
2021/07/14 06:17:37;;;;;;;;;16.50;13.25;;;;;;;;5063142;28;45955;-76
2021/07/14 06:20:04;;;;;;;;;16.67;13.00;;;;;;;;5057021;28;45574;-78
2021/07/14 06:22:29;;;;;;;;;14.75;12.75;;;;;;;;5052940;28;47849;-75
2021/07/14 06:24:55;;;;;;;;;15.67;13.33;;;;;;;;5054256;28;45545;-77
2021/07/14 06:27:20;;;;;;;;;14.75;11.75;;;;;;;;5057968;28;47174;-77
2021/07/14 06:29:45;;;;;;;;;11.67;11.67;;;;;;;;5061968;28;46042;-75
2021/07/14 06:32:10;;;;;;;;;12.00;8.67;;;;;;;;5062017;28;45617;-76
2021/07/14 06:34:36;;;;;;;;;13.00;10.67;;;;;;;;5061300;28;45489;-76
2021/07/14 06:37:01;;;;;;;;;7.75;7.75;;;;;;;;5052049;28;45706;-76
2021/07/14 06:39:27;;;;;;;;;8.00;8.00;;;;;;;;5051663;28;46498;-75
2021/07/14 06:41:53;;;;;;;;;8.25;7.75;;;;;;;;5062267;28;45445;-75
2021/07/14 06:44:19;;;;;;;;;10.75;9.50;;;;;;;;5061920;28;45351;-76
2021/07/14 06:46:44;;;;;;;;;13.00;9.33;;;;;;;;5051235;28;45399;-75
2021/07/14 06:49:09;;;;;;;;;7.33;6.00;;;;;;;;5049618;28;45817;-76
2021/07/14 06:51:34;;;;;;;;;10.67;8.00;;;;;;;;5049307;28;45601;-75
2021/07/14 06:53:59;;;;;;;;;10.33;8.00;;;;;;;;5048984;28;45654;-77
2021/07/14 06:56:25;;;;;;;;;9.33;8.00;;;;;;;;5051045;28;45489;-76
2021/07/14 06:58:50;;;;;;;;;11.75;10.00;;;;;;;;5053812;28;46418;-76
2021/07/14 07:01:15;;;;;;;;;10.33;9.33;;;;;;;;5056468;28;45643;-77
2021/07/14 07:03:40;;;;;;;;;12.33;9.00;;;;;;;;5051976;28;45598;-75
2021/07/14 07:06:06;;;;;;;;;8.00;7.50;;;;;;;;5048601;28;45452;-76
2021/07/14 07:08:32;;;;;;;;;10.50;8.75;;;;;;;;5040106;28;48052;-75
2021/07/14 07:10:57;;;;;;;;;10.75;8.75;;;;;;;;5041910;28;46025;-75
2021/07/14 07:13:22;;;;;;;;;9.67;8.00;;;;;;;;5044958;28;45292;-76
2021/07/14 07:15:48;;;;;;;;;7.67;7.67;;;;;;;;5036749;28;45337;-78
2021/07/14 07:18:13;;;;;;;;;9.25;8.00;;;;;;;;5037317;28;45837;-76
2021/07/14 07:20:39;;;;;;;;;8.00;7.33;;;;;;;;5045224;28;46031;-77
2021/07/14 07:23:05;;;;;;;;;8.50;8.50;;;;;;;;5047018;28;45421;-78
2021/07/14 07:25:30;;;;;;;;;9.75;7.75;;;;;;;;5058674;28;45524;-76
2021/07/14 07:27:59;;;;;;;;;11.25;10.50;;;;;;;;5047425;27;45302;-76
2021/07/14 07:30:24;;;;;;;;;9.75;8.00;;;;;;;;5041359;28;45722;-77
2021/07/14 07:32:49;;;;;;;;;9.00;7.00;;;;;;;;5039780;28;45441;-76
2021/07/14 07:35:14;;;;;;;;;8.00;7.67;;;;;;;;5050835;28;45451;-76
2021/07/14 07:37:40;;;;;;;;;7.50;7.50;;;;;;;;5056889;28;45454;-77
2021/07/14 07:40:05;;;;;;;;;7.50;7.50;;;;;;;;5054398;28;45463;-79
2021/07/14 07:42:31;;;;;;;;;8.75;7.50;;;;;;;;5058330;27;46826;-76
2021/07/14 07:44:56;;;;;;;;;8.67;7.00;;;;;;;;5051191;28;45604;-78
2021/07/14 07:47:22;;;;;;;;;7.25;6.50;;;;;;;;5061884;28;46057;-76
2021/07/14 07:49:47;;;;;;;;;7.50;6.00;;;;;;;;5052698;28;45279;-77
2021/07/14 07:52:13;;;;;;;;;11.33;8.00;;;;;;;;5051606;28;45338;-76
2021/07/14 07:54:38;;;;;;;;;7.75;7.25;;;;;;;;5050829;28;45563;-77
2021/07/14 07:57:04;;;;;;;;;9.00;7.25;;;;;;;;5061912;28;45560;-76
2021/07/14 07:59:29;;;;;;;;;12.50;8.00;;;;;;;;5052162;28;45431;-78
2021/07/14 08:01:54;;;;;;;;;8.50;8.00;;;;;;;;5038586;28;45615;-79
2021/07/14 08:04:20;;;;;;;;;6.75;6.75;;;;;;;;5036157;28;45329;-78
2021/07/14 08:06:45;;;;;;;;;7.33;6.00;;;;;;;;5046041;28;46475;-79
2021/07/14 08:09:10;;;;;;;;;10.00;7.50;;;;;;;;5053441;28;45608;-77
2021/07/14 08:11:35;;;;;;;;;8.00;8.00;;;;;;;;5053389;28;45608;-76
2021/07/14 08:14:01;;;;;;;;;6.33;6.33;;;;;;;;5053892;28;45772;-77
2021/07/14 08:16:27;;;;;;;;;7.00;7.00;;;;;;;;5054086;28;45523;-77
2021/07/14 08:18:52;;;;;;;;;6.75;6.75;;;;;;;;5051518;28;45756;-75
2021/07/14 08:21:18;;;;;;;;;8.25;6.00;;;;;;;;5046445;28;45679;-75
2021/07/14 08:23:44;;;;;;;;;6.50;6.50;;;;;;;;5047555;28;45573;-75
2021/07/14 08:26:09;;;;;;;;;7.50;6.75;;;;;;;;5052672;28;46417;-76
2021/07/14 08:28:35;;;;;;;;;6.00;5.00;;;;;;;;5051197;28;45411;-77
2021/07/14 08:31:00;;;;;;;;;9.00;7.33;;;;;;;;5051761;28;45772;-74
2021/07/14 08:33:25;;;;;;;;;7.50;6.00;;;;;;;;5050234;28;45441;-76
2021/07/14 08:35:50;;;;;;;;;6.67;5.00;;;;;;;;5050480;28;46274;-76
2021/07/14 08:38:16;;;;;;;;;7.00;5.00;;;;;;;;5052342;28;45521;-75
2021/07/14 08:40:41;;;;;;;;;6.25;4.75;;;;;;;;5058386;28;45362;-76
2021/07/14 08:43:08;;;;;;;;;8.67;6.33;;;;;;;;5056981;28;45329;-75
2021/07/14 08:45:33;;;;;;;;;6.00;5.50;;;;;;;;5052849;28;47199;-75
2021/07/14 08:47:59;;;;;;;;;6.00;5.00;;;;;;;;5064474;28;45385;-76
2021/07/14 08:50:24;;;;;;;;;5.50;5.50;;;;;;;;5063334;28;45422;-76
2021/07/14 08:52:49;;;;;;;;;5.00;5.00;;;;;;;;5061283;28;45547;-75
2021/07/14 08:55:16;;;;;;;;;7.25;6.00;;;;;;;;5057907;28;45817;-77
2021/07/14 08:57:43;;;;;;;;;6.00;4.00;;;;;;;;5059703;27;45508;-77
2021/07/14 09:00:10;;;;;;;;;5.75;5.75;;;;;;;;5035215;28;45425;-76
2021/07/14 09:02:38;;;;;;;;;5.50;4.50;;;;;;;;5045844;28;45709;-77
2021/07/14 09:05:03;;;;;;;;;4.00;4.00;;;;;;;;5057583;28;46383;-74
2021/07/14 09:07:29;;;;;;;;;3.00;3.00;;;;;;;;5057378;28;45791;-75
2021/07/14 09:09:54;;;;;;;;;3.33;3.33;;;;;;;;5054939;28;45430;-75
2021/07/14 09:12:19;;;;;;;;;4.00;3.00;;;;;;;;5059550;28;45633;-74
2021/07/14 09:14:47;;;;;;;;;6.00;3.33;;;;;;;;5063631;28;46378;-76
2021/07/14 09:17:25;;;;;;;;;7.00;5.00;;;;;;;;5063920;28;45463;-79
2021/07/14 09:19:59;;;;;;;;;4.25;3.00;;;;;;;;5065881;28;45354;-75
2021/07/14 09:22:27;;;;;;;;;4.75;3.25;;;;;;;;5060291;28;45577;-75
2021/07/14 09:24:56;;;;;;;;;4.25;4.25;;;;;;;;5054889;27;45577;-75
2021/07/14 09:27:27;;;;;;;;;6.25;4.75;;;;;;;;5060549;27;45514;-75
2021/07/14 09:30:11;;;;;;;;;4.00;4.00;;;;;;;;5063865;28;45435;-75
2021/07/14 09:32:45;;;;;;;;;4.00;3.00;;;;;;;;5051062;28;45669;-76
2021/07/14 09:35:10;;;;;;;;;5.25;3.75;;;;;;;;5058943;28;48262;-75
2021/07/14 09:37:38;;;;;;;;;4.50;3.50;;;;;;;;5055413;28;45443;-75
2021/07/14 09:40:13;;;;;;;;;3.75;3.75;;;;;;;;5055287;28;45652;-76
2021/07/14 09:42:39;;;;;;;;;3.25;3.25;;;;;;;;5059264;27;45280;-76
2021/07/14 09:45:04;;;;;;;;;5.00;3.00;;;;;;;;5051585;28;46375;-73
2021/07/14 09:47:29;;;;;;;;;5.00;3.75;;;;;;;;5060840;28;45661;-73
2021/07/14 09:49:55;;;;;;;;;4.00;4.00;;;;;;;;5065639;28;45283;-73
2021/07/14 09:52:21;;;;;;;;;3.33;3.33;;;;;;;;5059338;28;47007;-74
2021/07/14 09:54:47;;;;;;;;;4.50;4.50;;;;;;;;5055127;28;45664;-75
2021/07/14 09:57:12;;;;;;;;;4.00;3.75;;;;;;;;5058319;27;45446;-74
2021/07/14 09:59:38;;;;;;;;;4.25;4.00;;;;;;;;5061575;28;45723;-75
2021/07/14 10:02:04;;;;;;;;;4.00;4.00;;;;;;;;5061266;28;45457;-76
2021/07/14 10:04:34;;;;;;;;;5.25;3.00;;;;;;;;5067199;28;46317;-76
2021/07/14 10:07:05;;;;;;;;;3.50;3.50;;;;;;;;5055155;28;45497;-75
2021/07/14 10:09:30;;;;;;;;;5.00;5.00;;;;;;;;5060007;28;45709;-75
2021/07/14 10:12:16;;;;;;;;;5.75;4.00;;;;;;;;5063581;28;45496;-74
2021/07/14 10:14:41;;;;;;;;;5.25;4.00;;;;;;;;5059480;28;46139;-75
2021/07/14 10:17:06;;;;;;;;;3.00;2.67;;;;;;;;5062579;28;45755;-75
2021/07/14 10:19:32;;;;;;;;;4.00;4.00;;;;;;;;5076517;27;45549;-77
2021/07/14 10:21:57;;;;;;;;;5.50;4.75;;;;;;;;5054351;28;45457;-74
2021/07/14 10:24:23;;;;;;;;;8.00;5.00;;;;;;;;5054832;28;45435;-72
2021/07/14 10:26:49;;;;;;;;;4.00;4.00;;;;;;;;5062800;28;45468;-74
2021/07/14 10:29:18;;;;;;;;;4.00;4.00;;;;;;;;5061822;28;45429;-75
2021/07/14 10:31:46;;;;;;;;;4.50;3.25;;;;;;;;5062850;28;45530;-75
2021/07/14 10:34:12;;;;;;;;;4.25;4.25;;;;;;;;5057998;27;45584;-72
2021/07/14 10:36:37;;;;;;;;;5.00;5.00;;;;;;;;5058914;28;45418;-72
2021/07/14 10:39:07;;;;;;;;;6.00;4.50;;;;;;;;5062908;28;45232;-74
2021/07/14 10:41:33;;;;;;;;;3.00;3.00;;;;;;;;5053056;28;45584;-74
2021/07/14 10:43:59;;;;;;;;;5.00;5.00;;;;;;;;5053692;28;45523;-73
2021/07/14 10:46:26;;;;;;;;;4.25;4.25;;;;;;;;5050801;28;47661;-74
2021/07/14 10:48:52;;;;;;;;;5.25;5.25;;;;;;;;5050301;28;45526;-74
2021/07/14 10:51:17;;;;;;;;;5.50;5.50;;;;;;;;5052224;28;45384;-74
2021/07/14 10:53:44;;;;;;;;;4.00;4.00;;;;;;;;5062532;28;45500;-74
2021/07/14 10:56:12;;;;;;;;;6.00;5.00;;;;;;;;5063403;28;45862;-74
2021/07/14 10:58:37;;;;;;;;;4.25;4.25;;;;;;;;5045300;28;45763;-74
2021/07/14 11:01:03;;;;;;;;;6.50;5.00;;;;;;;;5044703;28;45559;-74
2021/07/14 11:03:31;;;;;;;;;6.00;5.00;;;;;;;;5055873;28;46219;-74
2021/07/14 11:05:56;;;;;;;;;4.75;3.75;;;;;;;;5050785;27;45807;-74
2021/07/14 11:08:48;;;;;;;;;5.67;5.00;;;;;;;;5051628;28;45483;-74
2021/07/14 11:11:17;;;;;;;;;4.75;4.25;;;;;;;;5048631;28;45680;-74
2021/07/14 11:13:43;;;;;;;;;5.00;5.00;;;;;;;;5051529;28;45433;-75
2021/07/14 11:16:28;;;;;;;;;7.75;5.25;;;;;;;;5047587;28;45482;-74
2021/07/14 11:18:57;;;;;;;;;7.00;6.00;;;;;;;;5049725;28;45629;-74
2021/07/14 11:21:41;;;;;;;;;6.25;6.25;;;;;;;;5048645;28;45609;-74
2021/07/14 11:24:06;;;;;;;;;6.00;6.00;;;;;;;;5045067;28;45274;-74
2021/07/14 11:26:31;;;;;;;;;6.00;6.00;;;;;;;;5047930;28;45969;-75
2021/07/14 11:29:14;;;;;;;;;6.00;6.00;;;;;;;;5042908;28;45542;-76
2021/07/14 11:31:41;;;;;;;;;11.25;8.50;;;;;;;;5043547;28;45541;-75
2021/07/14 11:34:25;;;;;;;;;19.00;13.50;;;;;;;;5048499;28;49609;-75
2021/07/14 11:36:50;;;;;;;;;8.50;7.25;;;;;;;;5051188;28;45894;-74
2021/07/14 11:39:29;;;;;;;;;9.00;9.00;;;;;;;;5051552;28;45570;-75
2021/07/14 11:42:14;;;;;;;;;8.00;8.00;;;;;;;;5049767;28;45553;-76
2021/07/14 11:44:39;;;;;;;;;9.00;8.50;;;;;;;;5048572;28;46020;-75
2021/07/14 11:47:23;;;;;;;;;8.00;8.00;;;;;;;;5051932;28;45646;-75
2021/07/14 11:49:49;;;;;;;;;8.00;7.25;;;;;;;;5051934;28;45668;-75
2021/07/14 11:52:41;;;;;;;;;8.50;8.00;;;;;;;;5049812;28;45785;-74
2021/07/14 11:55:21;;;;;;;;;9.00;9.00;;;;;;;;5043203;28;47379;-75
2021/07/14 11:57:47;;;;;;;;;10.00;8.00;;;;;;;;5049751;28;45506;-75
2021/07/14 12:00:12;;;;;;;;;10.25;9.00;;;;;;;;5050613;28;45324;-74
2021/07/14 12:02:38;;;;;;;;;11.00;9.00;;;;;;;;5045181;28;45551;-75
2021/07/14 12:05:07;;;;;;;;;9.00;8.33;;;;;;;;5064051;28;46748;-75
2021/07/14 12:07:40;;;;;;;;;8.25;8.00;;;;;;;;5059008;28;45722;-75
2021/07/14 12:10:12;;;;;;;;;9.00;7.50;;;;;;;;5053774;27;45515;-75
2021/07/14 12:12:44;;;;;;;;;7.00;7.00;;;;;;;;5050252;28;45363;-75
2021/07/14 12:15:10;;;;;;;;;11.00;8.00;;;;;;;;5047684;27;46152;-75
2021/07/14 12:17:35;;;;;;;;;9.00;7.25;;;;;;;;5053751;28;45779;-75
2021/07/14 12:20:00;;;;;;;;;10.75;9.75;;;;;;;;5066948;28;45519;-75
2021/07/14 12:22:27;;;;;;;;;13.75;12.25;;;;;;;;5045974;28;45711;-75
2021/07/14 12:24:57;;;;;;;;;9.00;7.25;;;;;;;;5046741;28;45556;-75
2021/07/14 12:27:23;;;;;;;;;10.75;9.00;;;;;;;;5048013;28;45572;-77
2021/07/14 12:29:56;;;;;;;;;11.00;9.75;;;;;;;;5046908;28;45468;-74
2021/07/14 12:32:28;;;;;;;;;9.00;9.00;;;;;;;;5048411;28;45635;-73
2021/07/14 12:34:53;;;;;;;;;11.25;8.75;;;;;;;;5052642;28;46333;-73
2021/07/14 12:37:19;;;;;;;;;8.00;8.00;;;;;;;;5049626;28;45241;-74
2021/07/14 12:39:44;;;;;;;;;8.00;8.00;;;;;;;;5050264;28;45382;-74
2021/07/14 12:42:10;;;;;;;;;7.00;6.00;;;;;;;;5050343;28;45514;-74
2021/07/14 12:44:35;;;;;;;;;10.50;9.25;;;;;;;;5065313;27;47079;-73
2021/07/14 12:47:11;;;;;;;;;6.75;6.75;;;;;;;;5054650;28;45431;-75
2021/07/14 12:49:36;;;;;;;;;7.00;6.00;;;;;;;;5058379;28;45359;-75
2021/07/14 12:52:05;;;;;;;;;9.00;8.75;;;;;;;;5055662;28;45265;-75
2021/07/14 12:54:31;;;;;;;;;7.00;7.00;;;;;;;;5060782;28;47330;-75
2021/07/14 12:57:03;;;;;;;;;8.00;6.75;;;;;;;;5061059;28;45747;-75
2021/07/14 12:59:29;;;;;;;;;7.50;7.50;;;;;;;;5063962;28;45752;-75
2021/07/14 13:01:54;;;;;;;;;5.33;5.33;;;;;;;;5043209;28;45816;-75
2021/07/14 13:04:19;;;;;;;;;7.00;7.00;;;;;;;;5058314;28;45462;-75
2021/07/14 13:06:45;;;;;;;;;8.25;6.00;;;;;;;;5053253;28;46148;-76
2021/07/14 13:09:10;;;;;;;;;6.25;6.25;;;;;;;;5048107;28;45718;-75
2021/07/14 13:11:36;;;;;;;;;10.50;9.50;;;;;;;;5052521;28;45640;-75
2021/07/14 13:14:02;;;;;;;;;10.00;9.00;;;;;;;;5055372;28;45341;-75
2021/07/14 13:16:28;;;;;;;;;6.00;6.00;;;;;;;;5058852;28;45935;-75
2021/07/14 13:18:59;;;;;;;;;6.00;6.00;;;;;;;;5059487;27;50343;-75
2021/07/14 13:21:25;;;;;;;;;7.50;7.50;;;;;;;;5059837;28;45387;-75
2021/07/14 13:24:01;;;;;;;;;7.75;6.50;;;;;;;;5063008;28;45625;-75
2021/07/14 13:26:26;;;;;;;;;7.00;7.00;;;;;;;;5064703;28;45829;-76
2021/07/14 13:28:51;;;;;;;;;8.75;6.50;;;;;;;;5065375;28;45389;-75
2021/07/14 13:31:26;;;;;;;;;6.67;5.33;;;;;;;;5058117;28;45508;-75
2021/07/14 13:34:03;;;;;;;;;7.75;7.00;;;;;;;;5042108;28;47358;-76
2021/07/14 13:36:33;;;;;;;;;6.75;5.75;;;;;;;;5078298;27;45601;-76
2021/07/14 13:38:58;;;;;;;;;9.25;8.75;;;;;;;;5052453;28;45684;-75
2021/07/14 13:41:24;;;;;;;;;7.25;7.00;;;;;;;;5061590;28;45458;-75
2021/07/14 13:43:59;;;;;;;;;6.67;6.67;;;;;;;;5057106;28;45733;-75
2021/07/14 13:46:24;;;;;;;;;7.00;7.00;;;;;;;;5056518;28;45319;-75
2021/07/14 13:49:10;;;;;;;;;8.00;8.00;;;;;;;;5052494;28;45456;-75
2021/07/14 13:51:38;;;;;;;;;7.50;7.25;;;;;;;;5045202;28;46119;-75
2021/07/14 13:54:12;;;;;;;;;8.75;8.50;;;;;;;;5053081;28;45506;-75
2021/07/14 13:56:38;;;;;;;;;9.00;9.00;;;;;;;;5052275;28;45423;-75
2021/07/14 13:59:21;;;;;;;;;8.00;7.00;;;;;;;;5065540;28;45272;-75
2021/07/14 14:02:03;;;;;;;;;8.00;8.00;;;;;;;;5063479;28;45489;-75
2021/07/14 14:04:29;;;;;;;;;9.25;7.50;;;;;;;;5053129;28;47134;-74
2021/07/14 14:06:57;;;;;;;;;7.50;7.50;;;;;;;;5052531;28;45813;-74
2021/07/14 14:09:23;;;;;;;;;8.25;8.25;;;;;;;;5052232;28;45320;-74
2021/07/14 14:11:48;;;;;;;;;8.25;7.25;;;;;;;;5052537;28;45259;-75
2021/07/14 14:14:14;;;;;;;;;10.75;8.75;;;;;;;;5064418;28;46168;-74
2021/07/14 14:16:40;;;;;;;;;10.00;9.00;;;;;;;;5060964;28;45402;-74
2021/07/14 14:19:09;;;;;;;;;8.00;8.00;;;;;;;;5057407;27;45233;-75
2021/07/14 14:21:34;;;;;;;;;11.75;11.00;;;;;;;;5044676;28;46697;-75
2021/07/14 14:24:04;;;;;;;;;12.50;10.25;;;;;;;;5062733;28;45949;-79
2021/07/14 14:26:29;;;;;;;;;9.25;9.25;;;;;;;;5045422;28;45952;-77
2021/07/14 14:28:55;;;;;;;;;14.00;12.50;;;;;;;;5044089;28;45549;-78
2021/07/14 14:31:20;;;;;;;;;12.00;11.00;;;;;;;;5052096;28;45540;-76
2021/07/14 14:33:52;;;;;;;;;11.00;10.25;;;;;;;;5051475;28;45332;-77
2021/07/14 14:36:17;;;;;;;;;10.00;10.00;;;;;;;;5050808;28;45703;-76
2021/07/14 14:38:42;;;;;;;;;11.50;11.50;;;;;;;;5063161;28;45578;-76